createdAt,value
2023-01-13T00:01:08.754Z,9.55
2023-01-13T00:03:37.630Z,9.54
2023-01-13T00:06:08.205Z,9.51
2023-01-13T00:08:37.151Z,9.48
2023-01-13T00:11:05.991Z,9.44
2023-01-13T00:13:35.676Z,9.46
2023-01-13T00:16:05.651Z,9.45
2023-01-13T00:18:34.627Z,9.33
2023-01-13T00:21:04.086Z,9.41
2023-01-13T00:23:35.795Z,9.57
2023-01-13T00:26:07.077Z,9.60
2023-01-13T00:28:35.935Z,9.59
2023-01-13T00:31:23.643Z,9.48
2023-01-13T00:33:52.526Z,9.48
2023-01-13T00:36:22.002Z,9.51
2023-01-13T00:38:52.213Z,9.55
2023-01-13T00:41:21.698Z,9.50
2023-01-13T00:43:49.749Z,9.57
2023-01-13T00:46:19.622Z,9.60
2023-01-13T00:48:48.531Z,9.43
2023-01-13T00:51:18.488Z,9.52
2023-01-13T00:53:47.971Z,9.46
2023-01-13T00:56:22.119Z,9.37
2023-01-13T00:58:59.249Z,9.30
2023-01-13T01:01:28.498Z,9.31
2023-01-13T01:03:57.294Z,9.27
2023-01-13T01:06:26.924Z,9.30
2023-01-13T01:08:56.280Z,9.42
2023-01-13T01:11:27.294Z,9.33
2023-01-13T01:13:56.573Z,9.38
2023-01-13T01:16:26.554Z,9.24
2023-01-13T01:18:55.518Z,9.32
2023-01-13T01:21:25.269Z,9.20
2023-01-13T01:23:54.418Z,9.26
2023-01-13T01:26:24.084Z,9.36
2023-01-13T01:28:54.266Z,9.24
2023-01-13T01:31:26.227Z,9.24
2023-01-13T01:33:55.163Z,9.25
2023-01-13T01:36:26.373Z,9.13
2023-01-13T01:38:55.177Z,9.12
2023-01-13T01:41:24.846Z,9.14
2023-01-13T01:44:00.384Z,8.93
2023-01-13T01:46:30.673Z,9.12
2023-01-13T01:49:03.096Z,8.96
2023-01-13T01:51:34.225Z,9.09
2023-01-13T01:54:03.021Z,8.98
2023-01-13T01:56:31.927Z,9.08
2023-01-13T01:59:02.084Z,9.02
2023-01-13T02:01:30.950Z,8.92
2023-01-13T02:04:01.212Z,8.76
2023-01-13T02:06:30.466Z,8.64
2023-01-13T02:08:59.519Z,8.57
2023-01-13T02:11:43.434Z,8.50
2023-01-13T02:14:13.922Z,8.56
2023-01-13T02:16:44.501Z,8.50
2023-01-13T02:19:19.992Z,8.49
2023-01-13T02:22:03.420Z,8.66
2023-01-13T02:24:54.189Z,8.45
2023-01-13T02:27:52.848Z,8.42
2023-01-13T02:30:41.932Z,8.39
2023-01-13T02:33:21.444Z,8.17
2023-01-13T02:35:51.721Z,8.19
2023-01-13T02:38:21.756Z,8.17
2023-01-13T02:40:56.356Z,8.09
2023-01-13T02:43:41.121Z,7.98
2023-01-13T02:46:14.688Z,8.06
2023-01-13T02:48:43.866Z,7.97
2023-01-13T02:51:14.155Z,7.84
2023-01-13T02:53:44.890Z,7.84
2023-01-13T02:56:13.961Z,7.93
2023-01-13T02:58:42.771Z,7.69
2023-01-13T03:01:13.045Z,7.74
2023-01-13T03:03:42.214Z,7.72
2023-01-13T03:06:16.214Z,7.70
2023-01-13T03:08:47.974Z,7.59
2023-01-13T03:11:17.684Z,7.71
2023-01-13T03:13:54.543Z,7.46
2023-01-13T03:16:30.899Z,7.43
2023-01-13T03:19:07.636Z,7.58
2023-01-13T03:21:39.972Z,7.35
2023-01-13T03:24:11.062Z,7.25
2023-01-13T03:26:41.545Z,7.39
2023-01-13T03:29:12.131Z,7.39
2023-01-13T03:31:44.510Z,7.42
2023-01-13T03:34:15.689Z,7.50
2023-01-13T03:36:44.458Z,7.41
2023-01-13T03:39:15.141Z,7.50
2023-01-13T03:41:45.962Z,7.41
2023-01-13T03:44:24.928Z,7.38
2023-01-13T03:47:01.031Z,7.33
2023-01-13T03:49:32.284Z,7.36
2023-01-13T03:52:02.534Z,7.35
2023-01-13T03:54:32.503Z,7.32
2023-01-13T03:57:02.308Z,7.29
2023-01-13T03:59:32.824Z,7.32
2023-01-13T04:02:04.367Z,7.21
2023-01-13T04:04:34.548Z,7.15
2023-01-13T04:07:09.245Z,7.16
2023-01-13T04:09:40.640Z,7.21
2023-01-13T04:12:12.773Z,7.13
2023-01-13T04:14:41.691Z,7.13
2023-01-13T04:17:11.937Z,7.20
2023-01-13T04:19:40.977Z,7.21
2023-01-13T04:22:09.770Z,7.16
2023-01-13T04:24:38.591Z,7.11
2023-01-13T04:27:07.695Z,7.09
2023-01-13T04:29:36.769Z,7.13
2023-01-13T04:32:05.599Z,7.11
2023-01-13T04:34:35.754Z,7.01
2023-01-13T04:37:04.823Z,6.95
2023-01-13T04:39:33.623Z,6.90
2023-01-13T04:42:02.939Z,6.87
2023-01-13T04:44:35.521Z,6.87
2023-01-13T04:47:04.305Z,6.81
2023-01-13T04:49:34.684Z,6.93
2023-01-13T04:52:04.226Z,6.92
2023-01-13T04:54:33.301Z,6.92
2023-01-13T04:57:02.072Z,6.87
2023-01-13T04:59:31.202Z,6.81
2023-01-13T05:02:00.862Z,6.84
2023-01-13T05:04:29.689Z,6.80
2023-01-13T05:06:59.890Z,6.79
2023-01-13T05:09:28.703Z,6.87
2023-01-13T05:12:12.178Z,6.83
2023-01-13T05:14:54.860Z,6.80
2023-01-13T05:17:25.411Z,6.83
2023-01-13T05:19:54.206Z,6.90
2023-01-13T05:22:38.282Z,6.95
2023-01-13T05:25:21.277Z,6.84
2023-01-13T05:27:50.078Z,6.93
2023-01-13T05:30:19.511Z,7.10
2023-01-13T05:32:48.310Z,7.10
2023-01-13T05:35:17.263Z,7.20
2023-01-13T05:37:47.477Z,7.23
2023-01-13T05:40:31.012Z,7.23
2023-01-13T05:43:17.770Z,7.25
2023-01-13T05:45:47.044Z,7.39
2023-01-13T05:48:15.917Z,7.40
2023-01-13T05:50:44.966Z,7.28
2023-01-13T05:53:15.212Z,7.30
2023-01-13T05:55:44.327Z,7.38
2023-01-13T05:58:13.641Z,7.45
2023-01-13T06:00:42.466Z,7.29
2023-01-13T06:03:11.722Z,7.23
2023-01-13T06:05:40.790Z,7.27
2023-01-13T06:08:09.636Z,7.26
2023-01-13T06:10:43.077Z,7.24
2023-01-13T06:13:11.884Z,7.27
2023-01-13T06:15:40.646Z,7.23
2023-01-13T06:18:09.446Z,7.16
2023-01-13T06:20:38.562Z,7.12
2023-01-13T06:23:07.977Z,7.18
2023-01-13T06:25:42.947Z,7.04
2023-01-13T06:28:12.095Z,7.01
2023-01-13T06:30:43.128Z,7.07
2023-01-13T06:33:13.710Z,7.04
2023-01-13T06:35:45.102Z,7.05
2023-01-13T06:38:16.394Z,7.13
2023-01-13T06:40:46.568Z,7.03
2023-01-13T06:43:16.550Z,7.09
2023-01-13T06:45:48.357Z,7.01
2023-01-13T06:48:17.911Z,7.03
2023-01-13T06:50:46.755Z,7.14
2023-01-13T06:53:15.806Z,7.10
2023-01-13T06:55:46.003Z,7.14
2023-01-13T06:58:14.813Z,7.12
2023-01-13T07:00:43.940Z,7.17
2023-01-13T07:03:13.781Z,7.09
2023-01-13T07:05:43.229Z,6.98
2023-01-13T07:08:12.597Z,7.14
2023-01-13T07:10:41.631Z,7.09
2023-01-13T07:13:25.694Z,7.10
2023-01-13T07:15:56.518Z,7.06
2023-01-13T07:18:27.525Z,7.05
2023-01-13T07:20:57.194Z,7.02
2023-01-13T07:23:26.907Z,7.19
2023-01-13T07:25:57.287Z,7.06
2023-01-13T07:28:29.830Z,7.20
2023-01-13T07:30:59.057Z,7.01
2023-01-13T07:33:35.421Z,7.09
2023-01-13T07:36:05.723Z,6.99
2023-01-13T07:38:35.234Z,6.98
2023-01-13T07:41:24.276Z,7.11
2023-01-13T07:43:54.775Z,7.07
2023-01-13T07:46:23.511Z,7.03
2023-01-13T07:48:52.617Z,7.02
2023-01-13T07:51:21.389Z,6.95
2023-01-13T07:53:50.475Z,7.00
2023-01-13T07:56:19.478Z,6.88
2023-01-13T07:58:51.261Z,6.95
2023-01-13T08:01:21.840Z,7.00
2023-01-13T08:03:50.731Z,6.92
2023-01-13T08:06:19.594Z,6.85
2023-01-13T08:08:48.385Z,7.01
2023-01-13T08:11:17.429Z,7.12
2023-01-13T08:13:46.238Z,6.97
2023-01-13T08:16:16.472Z,7.03
2023-01-13T08:18:46.626Z,7.14
2023-01-13T08:21:15.951Z,7.12
2023-01-13T08:23:45.735Z,7.11
2023-01-13T08:26:15.070Z,7.07
2023-01-13T08:28:43.852Z,7.19
2023-01-13T08:31:13.591Z,7.27
2023-01-13T08:33:42.708Z,7.20
2023-01-13T08:36:13.579Z,7.03
2023-01-13T08:38:42.513Z,7.10
2023-01-13T08:41:11.989Z,7.09
2023-01-13T08:43:41.082Z,7.15
2023-01-13T08:46:09.927Z,7.30
2023-01-13T08:48:38.793Z,7.25
2023-01-13T08:51:09.103Z,7.32
2023-01-13T08:53:39.272Z,7.24
2023-01-13T08:56:16.190Z,7.46
2023-01-13T08:58:49.014Z,7.25
2023-01-13T09:01:30.436Z,7.33
2023-01-13T09:04:01.179Z,7.33
2023-01-13T09:06:30.276Z,7.30
2023-01-13T09:09:02.602Z,7.27
2023-01-13T09:11:46.744Z,7.30
2023-01-13T09:14:19.540Z,7.39
2023-01-13T09:16:48.423Z,7.31
2023-01-13T09:19:17.286Z,7.26
2023-01-13T09:21:46.805Z,7.35
2023-01-13T09:24:17.753Z,7.32
2023-01-13T09:26:47.331Z,7.37
2023-01-13T09:29:16.152Z,7.43
2023-01-13T09:31:45.381Z,7.49
2023-01-13T09:34:29.631Z,7.23
2023-01-13T09:36:59.502Z,7.21
2023-01-13T09:42:31.267Z,7.20
2023-01-13T09:45:01.977Z,7.29
2023-01-13T09:47:32.748Z,7.25
2023-01-13T09:50:04.217Z,7.40
2023-01-13T09:52:33.074Z,7.37
2023-01-13T09:55:05.547Z,7.39
2023-01-13T09:57:38.061Z,7.46
2023-01-13T10:00:12.823Z,7.39
2023-01-13T10:02:59.277Z,7.38
2023-01-13T10:05:32.820Z,7.46
2023-01-13T10:08:05.598Z,7.37
2023-01-13T10:10:41.317Z,7.29
2023-01-13T10:13:15.770Z,7.36
2023-01-13T10:15:48.005Z,7.48
2023-01-13T10:18:19.893Z,7.46
2023-01-13T10:20:54.145Z,7.60
2023-01-13T10:23:36.174Z,7.49
2023-01-13T10:26:11.884Z,7.57
2023-01-13T10:28:41.455Z,7.58
2023-01-13T10:31:14.665Z,7.72
2023-01-13T10:33:48.487Z,7.73
2023-01-13T10:36:18.579Z,7.86
2023-01-13T10:38:50.784Z,7.78
2023-01-13T10:41:25.185Z,7.84
2023-01-13T10:44:05.061Z,7.74
2023-01-13T10:46:35.980Z,7.87
2023-01-13T10:49:05.935Z,7.77
2023-01-13T10:51:45.549Z,8.01
2023-01-13T10:54:22.630Z,7.99
2023-01-13T10:57:13.388Z,7.85
2023-01-13T10:59:42.199Z,7.85
2023-01-13T11:02:25.696Z,7.73
2023-01-13T11:05:04.303Z,7.70
2023-01-13T11:07:34.653Z,7.82
2023-01-13T11:10:17.632Z,7.93
2023-01-13T11:12:54.517Z,7.73
2023-01-13T11:15:25.422Z,7.78
2023-01-13T11:18:00.770Z,7.76
2023-01-13T11:20:33.964Z,7.99
2023-01-13T11:23:04.964Z,8.10
2023-01-13T11:25:43.413Z,8.00
2023-01-13T11:28:35.627Z,8.01
2023-01-13T11:31:08.670Z,8.06
2023-01-13T11:33:41.137Z,8.29
2023-01-13T11:36:13.673Z,8.27
2023-01-13T11:38:50.810Z,8.20
2023-01-13T11:41:28.915Z,8.29
2023-01-13T11:44:02.585Z,8.21
2023-01-13T11:46:32.988Z,8.43
2023-01-13T11:49:01.908Z,8.25
2023-01-13T11:51:35.799Z,8.17
2023-01-13T11:54:15.947Z,8.26
2023-01-13T11:57:11.354Z,8.24
2023-01-13T11:59:50.182Z,8.15
2023-01-13T12:02:25.759Z,8.27
2023-01-13T12:04:57.681Z,8.43
2023-01-13T12:07:34.395Z,8.33
2023-01-13T12:10:12.295Z,8.28
2023-01-13T12:12:49.841Z,8.24
2023-01-13T12:15:37.226Z,8.30
2023-01-13T12:18:19.271Z,8.24
2023-01-13T12:20:55.120Z,8.18
2023-01-13T12:23:28.693Z,7.92
2023-01-13T12:26:02.486Z,7.90
2023-01-13T12:28:38.403Z,7.94
2023-01-13T12:31:10.120Z,7.85
2023-01-13T12:33:46.191Z,7.87
2023-01-13T12:36:22.772Z,7.97
2023-01-13T12:38:54.425Z,7.75
2023-01-13T12:41:35.427Z,7.73
2023-01-13T12:44:17.370Z,7.67
2023-01-13T12:46:53.608Z,7.65
2023-01-13T12:49:24.759Z,7.65
2023-01-13T12:52:10.968Z,7.69
2023-01-13T12:55:03.340Z,7.74
2023-01-13T12:57:34.744Z,7.76
2023-01-13T13:00:18.818Z,7.73
2023-01-13T13:03:19.410Z,7.71
2023-01-13T13:05:56.297Z,7.75
2023-01-13T13:08:27.953Z,7.50
2023-01-13T13:11:28.221Z,7.63
2023-01-13T13:13:57.287Z,7.47
2023-01-13T13:16:38.890Z,7.12
2023-01-13T13:19:37.191Z,6.89
2023-01-13T13:22:21.273Z,6.84
2023-01-13T13:25:19.267Z,6.91
2023-01-13T13:27:50.188Z,6.91
2023-01-13T13:30:21.752Z,6.75
2023-01-13T13:32:58.052Z,6.94
2023-01-13T13:35:35.300Z,6.85
2023-01-13T13:38:28.163Z,6.91
2023-01-13T13:41:13.236Z,6.96
2023-01-13T13:44:00.592Z,6.87
2023-01-13T13:46:43.995Z,6.87
2023-01-13T13:49:13.563Z,6.96
2023-01-13T13:51:45.411Z,7.12
2023-01-13T13:54:17.808Z,6.88
2023-01-13T13:56:53.679Z,6.91
2023-01-13T13:59:30.561Z,6.84
2023-01-13T14:02:04.030Z,7.06
2023-01-13T14:04:38.291Z,6.94
2023-01-13T14:07:20.008Z,7.04
2023-01-13T14:09:51.588Z,6.96
2023-01-13T14:12:21.416Z,6.99
2023-01-13T14:14:51.267Z,7.19
2023-01-13T14:17:22.071Z,7.01
2023-01-13T14:19:55.187Z,7.21
2023-01-13T14:22:27.620Z,7.19
2023-01-13T14:24:58.921Z,7.12
2023-01-13T14:27:28.965Z,7.11
2023-01-13T14:29:58.635Z,7.11
2023-01-13T14:32:34.200Z,7.01
2023-01-13T14:35:11.214Z,7.07
2023-01-13T14:37:41.692Z,7.17
2023-01-13T14:40:45.067Z,7.15
2023-01-13T14:43:17.020Z,7.12
2023-01-13T14:45:58.529Z,7.18
2023-01-13T14:48:35.126Z,7.07
2023-01-13T14:51:06.409Z,7.16
2023-01-13T14:53:40.410Z,7.15
2023-01-13T14:56:37.944Z,7.04
2023-01-13T14:59:36.235Z,7.14
2023-01-13T15:02:34.833Z,7.07
2023-01-13T15:05:32.387Z,7.01
2023-01-13T15:08:06.761Z,6.93
2023-01-13T15:10:38.662Z,7.00
2023-01-13T15:13:08.213Z,6.99
2023-01-13T15:15:38.015Z,7.04
2023-01-13T15:18:12.083Z,7.02
2023-01-13T15:20:41.345Z,6.99
2023-01-13T15:23:19.735Z,6.96
2023-01-13T15:25:50.736Z,6.90
2023-01-13T15:28:24.227Z,7.06
2023-01-13T15:30:55.027Z,6.99
2023-01-13T15:33:24.186Z,7.01
2023-01-13T15:35:53.921Z,6.98
2023-01-13T15:38:24.791Z,7.05
2023-01-13T15:40:53.742Z,7.07
2023-01-13T15:43:39.268Z,7.14
2023-01-13T15:46:26.303Z,7.09
2023-01-13T15:48:55.183Z,7.00
2023-01-13T15:51:25.263Z,6.99
2023-01-13T15:54:00.878Z,7.03
2023-01-13T15:56:29.766Z,7.05
2023-01-13T15:58:58.580Z,6.93
2023-01-13T16:01:27.409Z,6.79
2023-01-13T16:03:56.630Z,6.95
2023-01-13T16:06:29.267Z,7.03
2023-01-13T16:08:59.615Z,7.02
2023-01-13T16:11:28.824Z,7.10
2023-01-13T16:13:58.017Z,6.96
2023-01-13T16:16:27.934Z,7.01
2023-01-13T16:18:57.138Z,7.06
2023-01-13T16:21:26.274Z,7.12
2023-01-13T16:23:55.364Z,7.13
2023-01-13T16:26:26.303Z,7.08
2023-01-13T16:28:58.302Z,7.10
2023-01-13T16:31:31.802Z,6.94
2023-01-13T16:34:00.920Z,7.01
2023-01-13T16:36:30.771Z,7.16
2023-01-13T16:39:02.204Z,7.04
2023-01-13T16:41:50.696Z,7.18
2023-01-13T16:44:19.880Z,7.17
2023-01-13T16:49:36.402Z,6.98
2023-01-13T16:52:05.357Z,7.02
2023-01-13T16:54:34.178Z,7.06
2023-01-13T16:57:04.530Z,7.02
2023-01-13T16:59:33.463Z,7.08
2023-01-13T17:02:03.325Z,6.94
2023-01-13T17:04:32.598Z,6.88
2023-01-13T17:07:02.470Z,6.97
2023-01-13T17:09:34.133Z,7.03
2023-01-13T17:12:04.414Z,6.91
2023-01-13T17:14:33.864Z,6.79
2023-01-13T17:17:02.706Z,6.97
2023-01-13T17:19:32.445Z,7.01
2023-01-13T17:22:01.285Z,7.04
2023-01-13T17:24:31.410Z,6.93
2023-01-13T17:27:00.224Z,7.07
2023-01-13T17:29:30.389Z,6.89
2023-01-13T17:31:59.204Z,7.01
2023-01-13T17:34:28.546Z,6.88
2023-01-13T17:36:57.344Z,6.96
2023-01-13T17:39:27.569Z,7.04
2023-01-13T17:41:57.574Z,7.02
2023-01-13T17:44:26.867Z,7.07
2023-01-13T17:46:57.120Z,7.06
2023-01-13T17:49:26.058Z,7.07
2023-01-13T17:51:54.913Z,7.04
2023-01-13T17:54:24.313Z,7.11
2023-01-13T17:56:53.150Z,7.04
2023-01-13T17:59:22.741Z,7.07
2023-01-13T18:01:51.618Z,6.90
2023-01-13T18:04:23.489Z,6.82
2023-01-13T18:06:52.292Z,6.89
2023-01-13T18:09:21.985Z,6.84
2023-01-13T18:11:52.266Z,6.95
2023-01-13T18:14:23.038Z,7.03
2023-01-13T18:16:52.200Z,6.90
2023-01-13T18:19:46.077Z,6.92
2023-01-13T18:22:28.669Z,6.98
2023-01-13T18:25:11.401Z,6.96
2023-01-13T18:27:41.761Z,7.03
2023-01-13T18:30:11.294Z,6.99
2023-01-13T18:32:40.063Z,7.12
2023-01-13T18:35:11.327Z,7.02
2023-01-13T18:37:40.753Z,7.00
2023-01-13T18:40:10.700Z,6.99
2023-01-13T18:43:02.034Z,7.03
2023-01-13T18:45:40.533Z,7.01
2023-01-13T18:48:09.383Z,7.03
2023-01-13T18:50:39.664Z,6.99
2023-01-13T18:53:08.501Z,7.09
2023-01-13T18:55:55.822Z,7.06
2023-01-13T19:01:10.999Z,7.07
2023-01-13T19:03:39.779Z,7.02
2023-01-13T19:06:12.900Z,6.99
2023-01-13T19:08:42.476Z,7.06
2023-01-13T19:11:11.232Z,7.28
2023-01-13T19:13:40.038Z,7.14
2023-01-13T19:16:09.740Z,7.17
2023-01-13T19:18:38.512Z,7.16
2023-01-13T19:21:07.771Z,7.21
2023-01-13T19:23:38.148Z,7.32
2023-01-13T19:26:08.133Z,7.10
2023-01-13T19:28:37.094Z,7.20
2023-01-13T19:31:07.503Z,7.13
2023-01-13T19:33:38.275Z,6.97
2023-01-13T19:36:07.472Z,7.12
2023-01-13T19:38:38.909Z,6.97
2023-01-13T19:41:28.535Z,7.07
2023-01-13T19:44:18.400Z,7.16
2023-01-13T19:46:47.170Z,7.08
2023-01-13T19:49:16.387Z,7.12
2023-01-13T19:51:45.213Z,7.14
2023-01-13T19:54:15.324Z,7.25
2023-01-13T19:56:44.429Z,7.16
2023-01-13T19:59:13.617Z,7.18
2023-01-13T20:01:42.479Z,7.16
2023-01-13T20:04:14.654Z,7.22
2023-01-13T20:06:43.532Z,7.26
2023-01-13T20:09:12.955Z,7.23
2023-01-13T20:11:43.297Z,7.27
2023-01-13T20:14:12.705Z,7.31
2023-01-13T20:16:41.771Z,7.13
2023-01-13T20:19:10.582Z,7.22
2023-01-13T20:21:40.068Z,7.31
2023-01-13T20:24:11.675Z,7.25
2023-01-13T20:26:40.463Z,7.23
2023-01-13T20:31:57.009Z,7.24
2023-01-13T20:34:26.126Z,7.19
2023-01-13T20:36:55.193Z,7.16
2023-01-13T20:39:25.190Z,7.11
2023-01-13T20:42:07.636Z,7.13
2023-01-13T20:44:38.045Z,7.07
2023-01-13T20:47:06.864Z,7.18
2023-01-13T20:49:36.400Z,7.27
2023-01-13T20:52:10.119Z,7.26
2023-01-13T20:54:38.883Z,7.19
2023-01-13T20:57:09.971Z,7.19
2023-01-13T20:59:40.839Z,7.21
2023-01-13T21:02:12.378Z,7.21
2023-01-13T21:04:41.170Z,7.38
2023-01-13T21:07:09.981Z,7.28
2023-01-13T21:09:39.150Z,7.30
2023-01-13T21:12:22.018Z,7.27
2023-01-13T21:15:06.103Z,7.23
2023-01-13T21:17:49.248Z,7.10
2023-01-13T21:20:18.727Z,7.11
2023-01-13T21:22:49.197Z,7.05
2023-01-13T21:25:18.568Z,7.13
2023-01-13T21:27:48.111Z,7.18
2023-01-13T21:30:19.262Z,7.16
2023-01-13T21:32:48.621Z,7.18
2023-01-13T21:35:18.507Z,7.11
2023-01-13T21:37:48.109Z,7.11
2023-01-13T21:40:18.322Z,7.24
2023-01-13T21:43:01.097Z,7.11
2023-01-13T21:45:45.227Z,7.02
2023-01-13T21:48:15.646Z,7.08
2023-01-13T21:50:45.855Z,7.12
2023-01-13T21:53:14.996Z,6.94
2023-01-13T21:55:44.115Z,7.00
2023-01-13T21:58:15.764Z,6.83
2023-01-13T22:00:46.504Z,6.94
2023-01-13T22:03:18.885Z,7.06
2023-01-13T22:05:54.572Z,6.95
2023-01-13T22:08:25.476Z,6.97
2023-01-13T22:10:58.860Z,7.02
2023-01-13T22:13:41.857Z,6.88
2023-01-13T22:16:12.717Z,7.04
2023-01-13T22:18:42.698Z,6.86
2023-01-13T22:21:13.825Z,6.99
2023-01-13T22:23:42.642Z,6.99
2023-01-13T22:26:11.599Z,7.01
2023-01-13T22:28:43.396Z,7.14
2023-01-13T22:31:14.740Z,7.00
2023-01-13T22:33:43.807Z,7.01
2023-01-13T22:36:12.576Z,6.97
2023-01-13T22:38:42.435Z,7.03
2023-01-13T22:41:11.296Z,6.95
2023-01-13T22:43:41.062Z,7.02
2023-01-13T22:46:10.740Z,6.94
2023-01-13T22:48:41.174Z,6.97
2023-01-13T22:51:10.826Z,7.05
2023-01-13T22:53:39.683Z,7.10
2023-01-13T22:56:09.041Z,7.02
2023-01-13T22:58:43.604Z,7.10
2023-01-13T23:01:12.990Z,6.93
2023-01-13T23:03:45.690Z,7.17
2023-01-13T23:06:14.488Z,7.18
2023-01-13T23:08:43.325Z,7.28
2023-01-13T23:11:12.833Z,7.10
2023-01-13T23:13:43.436Z,7.28
2023-01-13T23:16:14.415Z,7.19
2023-01-13T23:18:48.043Z,7.18
2023-01-13T23:21:18.127Z,7.20
2023-01-13T23:23:47.093Z,7.18
2023-01-13T23:26:15.865Z,7.22
2023-01-13T23:28:45.918Z,7.22
2023-01-13T23:31:15.499Z,7.23
2023-01-13T23:33:45.788Z,7.03
2023-01-13T23:36:15.499Z,7.22
2023-01-13T23:38:44.317Z,7.26
2023-01-13T23:41:14.915Z,7.23
2023-01-13T23:43:44.007Z,7.19
2023-01-13T23:46:14.238Z,7.21
2023-01-13T23:48:44.545Z,7.16
2023-01-13T23:51:14.070Z,7.19
2023-01-13T23:53:44.073Z,7.19
2023-01-13T23:56:14.405Z,7.17
2023-01-13T23:58:43.634Z,7.30
